KLEB/LEB METAR and TAF weather

Enter ICAO airport designator
Station Type Date Time Source
KLEB METAR 2020/01/20 21:53 UTC NOAA

KLEB 202153Z 33006KT 10SM CLR M07/M21 A3023 RMK AO2 SLP255 T10671206


Station Type Date Time Source
KLEB Decoded METAR 2020/01/20 21:53 UTC NOAA

LEBANON MUNICIPAL AIRPORT, NH, United States (KLEB) 43-38N 072-18W 171M
Jan 20, 2020 - 04:53 PM EST / 2020.01.20 2153 UTC
Wind: from the NNW (330 degrees) at 7 MPH (6 KT):0
Visibility: 10 mile(s):0
Sky conditions: clear
Temperature: 19.9 F (-6.7 C)
Windchill: 10 F (-12 C):1
Dew Point: -5.1 F (-20.6 C)
Relative Humidity: 32%
Pressure (altimeter): 30.23 in. Hg (1023 hPa)
ob: KLEB 202153Z 33006KT 10SM CLR M07/M21 A3023 RMK AO2 SLP255 T10671206
cycle: 22

Station Type Date Time Source
KLEB TAF 2020/01/20 18:27 UTC NOAA

TAF KLEB 201723Z 2018/2118 33010KT P6SM SKC
FM210000 00000KT P6SM SKC

Example: see airport list